Time;durP1;ratioP1;P1;durP2;ratioP2;P2;SDS_P1;SDS_P2;PMS_P1;PMS_P2;Temp;Humidity;BMP_temperature;BMP_pressure;BME280_temperature;BME280_humidity;BME280_pressure;Samples;Min_cycle;Max_cycle;Signal;HPM_P1;HPM_P2
2023/01/13 00:01:07;;;;;;;20.98;4.82;;;9.10;99.90;;;;;;5004970;28;20041;-87
2023/01/13 00:03:33;;;;;;;25.05;4.85;;;9.00;99.90;;;;;;5004395;28;20988;-88
2023/01/13 00:06:02;;;;;;;25.67;4.75;;;9.00;99.90;;;;;;5007612;28;20183;-87
2023/01/13 00:08:28;;;;;;;24.98;5.45;;;9.00;99.90;;;;;;5003707;28;20120;-87
2023/01/13 00:10:53;;;;;;;19.55;4.47;;;8.90;99.90;;;;;;5003675;28;20171;-90
2023/01/13 00:13:25;;;;;;;23.15;5.95;;;8.90;99.90;;;;;;5002115;28;20037;-87
2023/01/13 00:15:58;;;;;;;29.90;4.65;;;8.90;99.90;;;;;;5018321;28;20048;-88
2023/01/13 00:18:24;;;;;;;30.98;5.20;;;8.80;99.90;;;;;;5017964;28;20127;-86
2023/01/13 00:21:04;;;;;;;27.38;5.18;;;8.80;99.90;;;;;;5002594;28;20519;-88
2023/01/13 00:23:32;;;;;;;28.17;6.47;;;8.80;99.90;;;;;;5004031;28;20076;-87
2023/01/13 00:26:01;;;;;;;26.25;5.28;;;8.70;99.90;;;;;;5003822;28;20041;-88
2023/01/13 00:28:27;;;;;;;31.35;5.90;;;8.80;99.90;;;;;;5003510;28;20083;-87
2023/01/13 00:30:55;;;;;;;26.45;5.28;;;8.70;99.90;;;;;;5016651;28;20076;-88
2023/01/13 00:33:20;;;;;;;31.95;5.55;;;8.60;99.90;;;;;;5004677;28;20044;-88
2023/01/13 00:35:58;;;;;;;30.95;5.85;;;8.70;99.90;;;;;;5003576;28;20172;-88
2023/01/13 00:38:24;;;;;;;31.73;5.95;;;8.60;99.90;;;;;;5019127;28;20120;-88
2023/01/13 00:41:05;;;;;;;31.95;6.07;;;8.60;99.90;;;;;;5014675;28;20112;-88
2023/01/13 00:43:32;;;;;;;26.50;5.25;;;8.50;99.90;;;;;;5018846;28;20034;-88
2023/01/13 00:45:58;;;;;;;30.58;6.03;;;8.50;99.90;;;;;;5020353;28;20132;-88
2023/01/13 00:48:25;;;;;;;32.47;5.53;;;8.40;99.90;;;;;;5001175;28;20717;-88
2023/01/13 00:51:03;;;;;;;30.20;6.30;;;8.60;99.90;;;;;;5017827;28;20084;-89
2023/01/13 00:53:33;;;;;;;26.70;6.13;;;8.50;99.90;;;;;;5017000;28;20120;-88
2023/01/13 00:56:05;;;;;;;29.40;5.43;;;8.60;99.90;;;;;;5003400;28;20133;-87
2023/01/13 00:58:33;;;;;;;29.80;5.43;;;8.40;99.90;;;;;;5000451;28;20037;-88
2023/01/13 01:01:04;;;;;;;26.55;5.47;;;8.30;99.90;;;;;;5002018;28;20102;-88
2023/01/13 01:03:30;;;;;;;28.15;5.15;;;8.40;99.90;;;;;;5001335;28;20057;-88
2023/01/13 01:06:02;;;;;;;29.00;5.63;;;8.40;99.90;;;;;;5016082;28;20509;-89
2023/01/13 01:08:28;;;;;;;23.67;6.22;;;8.40;99.90;;;;;;5002952;28;20037;-87
2023/01/13 01:11:05;;;;;;;28.33;6.20;;;8.30;99.90;;;;;;5000764;28;20045;-87
2023/01/13 01:13:31;;;;;;;32.05;5.65;;;8.30;99.90;;;;;;5020364;28;20075;-88
2023/01/13 01:15:57;;;;;;;25.83;5.55;;;8.40;99.90;;;;;;5018896;28;20080;-88
2023/01/13 01:18:23;;;;;;;27.52;5.68;;;8.30;99.90;;;;;;5011651;28;20037;-88
2023/01/13 01:20:49;;;;;;;37.83;6.63;;;8.30;99.90;;;;;;5004122;28;20037;-87
2023/01/13 01:23:14;;;;;;;27.55;5.55;;;8.20;99.90;;;;;;5000973;28;20060;-88
2023/01/13 01:25:40;;;;;;;40.47;6.70;;;8.20;99.90;;;;;;5018573;28;20104;-88
2023/01/13 01:28:06;;;;;;;34.60;6.80;;;8.20;99.90;;;;;;5002482;28;20517;-88
2023/01/13 01:30:37;;;;;;;31.10;5.68;;;8.10;99.90;;;;;;5003672;28;20112;-88
2023/01/13 01:33:04;;;;;;;33.08;5.82;;;8.10;99.90;;;;;;5001387;28;20037;-88
2023/01/13 01:35:29;;;;;;;27.98;5.97;;;8.10;99.90;;;;;;5002808;28;20068;-88
2023/01/13 01:37:55;;;;;;;30.90;5.40;;;8.30;99.90;;;;;;5017585;28;20045;-87
2023/01/13 01:40:20;;;;;;;29.98;5.93;;;8.20;99.90;;;;;;4997339;28;20049;-89
2023/01/13 01:45:30;;;;;;;33.45;6.43;;;8.10;99.90;;;;;;5016299;28;20092;-87
2023/01/13 01:48:00;;;;;;;30.75;6.07;;;8.20;99.90;;;;;;5016610;28;20713;-87
2023/01/13 01:50:27;;;;;;;27.67;6.20;;;8.10;99.90;;;;;;5002338;28;20048;-88
2023/01/13 01:53:01;;;;;;;31.27;5.63;;;8.10;99.90;;;;;;5001369;28;20064;-88
2023/01/13 01:55:31;;;;;;;29.98;5.75;;;8.20;99.90;;;;;;5016956;28;20697;-88
2023/01/13 01:58:10;;;;;;;27.58;5.57;;;8.10;99.90;;;;;;5017333;28;20076;-88
2023/01/13 02:00:36;;;;;;;42.55;6.43;;;8.20;99.90;;;;;;5016805;28;20496;-88
2023/01/13 02:03:06;;;;;;;31.77;5.35;;;8.20;99.90;;;;;;5003237;28;20048;-88
2023/01/13 02:05:33;;;;;;;34.03;5.45;;;8.20;99.90;;;;;;5001326;28;20979;-89
2023/01/13 02:08:00;;;;;;;35.15;6.07;;;8.20;99.90;;;;;;5015793;28;20056;-87
2023/01/13 02:10:27;;;;;;;30.92;5.80;;;8.20;99.90;;;;;;5018245;28;20357;-88
2023/01/13 02:12:55;;;;;;;24.27;5.78;;;8.10;99.90;;;;;;5002513;28;20444;-88
2023/01/13 02:15:28;;;;;;;29.10;5.15;;;8.20;99.90;;;;;;5000874;28;20045;-88
2023/01/13 02:17:56;;;;;;;33.17;6.30;;;8.30;99.90;;;;;;5018611;28;20042;-87
2023/01/13 02:20:28;;;;;;;30.50;6.10;;;8.20;99.90;;;;;;5017289;28;20083;-87
2023/01/13 02:22:56;;;;;;;27.23;5.38;;;8.30;99.90;;;;;;5016310;28;20045;-87
2023/01/13 02:26:00;;;;;;;35.80;6.35;;;8.30;99.90;;;;;;5001228;28;20057;-87
2023/01/13 02:31:47;;;;;;;30.50;5.63;;;8.30;99.90;;;;;;5031882;28;20125;-88
2023/01/13 02:34:39;;;;;;;24.35;6.43;;;8.40;99.90;;;;;;5017461;28;20045;-88
2023/01/13 02:37:27;;;;;;;29.25;5.30;;;8.40;99.90;;;;;;4998232;28;20041;-89
2023/01/13 02:40:04;;;;;;;23.02;5.22;;;8.40;99.90;;;;;;4999581;28;20293;-87
2023/01/13 02:45:25;;;;;;;26.65;5.70;;;8.20;99.90;;;;;;5014627;28;20056;-88
2023/01/13 02:47:56;;;;;;;29.73;6.05;;;8.30;99.90;;;;;;5001714;28;20450;-88
2023/01/13 02:50:28;;;;;;;24.52;5.32;;;8.30;99.90;;;;;;5016557;28;20489;-88
2023/01/13 02:53:21;;;;;;;25.85;5.30;;;8.30;99.90;;;;;;5001395;28;20049;-87
2023/01/13 02:55:52;;;;;;;28.17;5.22;;;8.30;99.90;;;;;;4997699;28;20576;-88
2023/01/13 02:58:21;;;;;;;25.73;5.20;;;8.30;99.90;;;;;;5015966;28;20531;-87
2023/01/13 03:00:48;;;;;;;27.70;5.82;;;8.30;99.90;;;;;;5004701;28;20041;-87
2023/01/13 03:03:14;;;;;;;26.50;6.13;;;8.20;99.90;;;;;;5002440;28;20053;-87
2023/01/13 03:05:42;;;;;;;23.02;5.72;;;8.20;99.90;;;;;;5005519;28;20044;-88
2023/01/13 03:08:38;;;;;;;27.42;6.43;;;8.20;99.90;;;;;;5003752;28;20038;-88
2023/01/13 03:11:04;;;;;;;;;;;8.20;99.90;;;;;;5017039;28;20481;-86
2023/01/13 03:14:03;;;;;;;31.88;6.00;;;8.20;99.90;;;;;;5004528;28;19917;-87
2023/01/13 03:17:04;;;;;;;28.08;5.50;;;8.10;99.90;;;;;;5002993;28;20041;-87
2023/01/13 03:20:05;;;;;;;29.15;5.35;;;8.00;99.90;;;;;;5020886;28;20030;-87
2023/01/13 03:22:48;;;;;;;26.33;5.88;;;7.90;99.90;;;;;;5003766;28;20176;-87
2023/01/13 03:25:31;;;;;;;28.20;5.10;;;7.90;99.90;;;;;;5019884;28;20057;-88
2023/01/13 03:28:08;;;;;;;28.38;5.03;;;7.90;99.90;;;;;;5004809;28;20038;-87
2023/01/13 03:30:47;;;;;;;29.63;5.13;;;8.00;99.90;;;;;;5005262;28;20432;-86
2023/01/13 03:33:47;;;;;;;23.50;5.55;;;8.00;99.90;;;;;;5022094;28;20342;-87
2023/01/13 03:36:16;;;;;;;31.60;5.50;;;8.00;99.90;;;;;;5002425;28;20050;-87
2023/01/13 03:38:53;;;;;;;20.35;5.30;;;8.00;99.90;;;;;;5018424;28;20063;-87
2023/01/13 03:41:35;;;;;;;24.45;4.40;;;8.00;99.90;;;;;;4998714;28;20056;-86
2023/01/13 03:44:22;;;;;;;25.33;5.65;;;8.00;99.90;;;;;;5002180;28;20162;-87
2023/01/13 03:47:32;;;;;;;22.00;4.72;;;8.10;99.90;;;;;;5019642;28;20033;-88
2023/01/13 03:50:13;;;;;;;31.52;5.47;;;8.00;99.90;;;;;;4984209;28;20042;-87
2023/01/13 03:53:00;;;;;;;24.95;6.70;;;7.90;99.90;;;;;;5002912;28;20685;-88
2023/01/13 03:55:30;;;;;;;24.27;5.85;;;7.90;99.90;;;;;;5003889;28;20042;-88
2023/01/13 03:58:02;;;;;;;24.75;5.38;;;7.90;99.90;;;;;;5021828;28;20060;-87
2023/01/13 04:00:37;;;;;;;26.25;5.93;;;7.90;99.90;;;;;;5020998;28;20815;-88
2023/01/13 04:03:23;;;;;;;32.80;5.65;;;7.90;99.90;;;;;;5015980;28;20041;-88
2023/01/13 04:05:56;;;;;;;24.35;5.00;;;7.90;99.90;;;;;;5004146;28;20464;-87
2023/01/13 04:08:24;;;;;;;27.27;6.13;;;7.90;99.90;;;;;;5020099;28;20642;-87
2023/01/13 04:10:57;;;;;;;31.90;6.10;;;7.90;99.90;;;;;;5003217;28;20033;-87
2023/01/13 04:13:25;;;;;;;23.67;5.57;;;7.90;99.90;;;;;;5004123;28;20037;-86
2023/01/13 04:15:50;;;;;;;26.67;5.57;;;7.90;99.90;;;;;;5020933;28;20082;-89
2023/01/13 04:18:23;;;;;;;34.85;6.25;;;7.90;99.90;;;;;;5003046;28;20049;-88
2023/01/13 04:20:50;;;;;;;32.47;5.10;;;7.90;99.90;;;;;;5018986;28;20037;-87
2023/01/13 04:23:21;;;;;;;31.00;5.15;;;7.90;99.90;;;;;;5002635;28;20434;-87
2023/01/13 04:25:47;;;;;;;28.90;6.22;;;7.80;99.90;;;;;;5012329;28;20050;-87
2023/01/13 04:28:13;;;;;;;30.75;6.82;;;7.80;99.90;;;;;;5000948;28;20037;-87
2023/01/13 04:30:39;;;;;;;31.27;6.00;;;7.80;99.90;;;;;;5017858;28;20053;-87
2023/01/13 04:33:04;;;;;;;31.10;5.38;;;7.90;99.90;;;;;;5001008;28;20045;-87
2023/01/13 04:35:32;;;;;;;32.38;5.43;;;7.90;99.90;;;;;;5003381;28;20041;-87
2023/01/13 04:38:28;;;;;;;28.10;5.45;;;7.90;99.90;;;;;;4999726;28;20042;-88
2023/01/13 04:40:53;;;;;;;32.40;5.78;;;7.90;99.90;;;;;;5000645;28;20072;-88
2023/01/13 04:43:19;;;;;;;35.75;5.68;;;7.90;99.90;;;;;;5000556;28;20069;-87
2023/01/13 04:45:47;;;;;;;35.97;6.30;;;7.90;99.90;;;;;;5000146;28;20152;-89
2023/01/13 04:48:13;;;;;;;27.77;5.05;;;7.90;99.90;;;;;;5016697;28;20131;-87
2023/01/13 04:50:39;;;;;;;20.42;4.95;;;7.90;99.90;;;;;;5001190;28;20044;-86
2023/01/13 04:53:04;;;;;;;28.65;5.47;;;8.00;99.90;;;;;;5001421;28;20026;-88
2023/01/13 04:55:30;;;;;;;31.10;6.53;;;8.10;99.90;;;;;;5018565;28;20045;-86
2023/01/13 04:58:04;;;;;;;31.48;5.00;;;8.10;99.90;;;;;;4999970;28;20169;-87
2023/01/13 05:00:30;;;;;;;36.47;6.50;;;8.10;99.90;;;;;;5002971;28;20814;-88
2023/01/13 05:02:56;;;;;;;35.20;6.18;;;8.10;99.90;;;;;;5014447;28;20047;-89
2023/01/13 05:05:22;;;;;;;31.20;5.93;;;8.10;99.90;;;;;;5002372;28;20049;-87
2023/01/13 05:07:48;;;;;;;29.38;5.88;;;8.20;99.90;;;;;;4995971;28;20038;-88
2023/01/13 05:10:13;;;;;;;34.80;6.20;;;8.20;99.90;;;;;;5000736;28;20808;-88
2023/01/13 05:18:11;;;;;;;27.30;5.28;;;8.10;99.90;;;;;;5015508;28;20134;-87
2023/01/13 05:20:37;;;;;;;31.88;5.90;;;8.20;99.90;;;;;;5002171;28;20182;-88
2023/01/13 05:25:49;;;;;;;30.30;5.50;;;8.30;99.90;;;;;;5016572;28;20056;-88
2023/01/13 05:28:15;;;;;;;30.90;6.35;;;8.30;99.90;;;;;;5002594;28;20141;-88
2023/01/13 05:30:45;;;;;;;28.55;5.03;;;8.20;99.90;;;;;;5016120;28;20346;-88
2023/01/13 05:33:17;;;;;;;30.80;6.30;;;8.20;99.90;;;;;;5002059;28;20034;-87
2023/01/13 05:35:45;;;;;;;27.40;5.22;;;8.20;99.90;;;;;;5011959;28;20064;-87
2023/01/13 05:38:12;;;;;;;28.63;5.90;;;8.30;99.90;;;;;;4999107;28;20038;-87
2023/01/13 05:43:26;;;;;;;30.67;7.07;;;8.20;99.90;;;;;;5014805;28;20046;-88
2023/01/13 05:45:55;;;;;;;29.45;6.28;;;8.30;99.90;;;;;;5015343;28;20034;-88
2023/01/13 05:48:23;;;;;;;35.15;5.82;;;8.30;99.90;;;;;;5001970;28;20040;-87
2023/01/13 05:50:49;;;;;;;31.65;5.35;;;8.30;99.90;;;;;;5002123;28;20037;-88
2023/01/13 05:53:16;;;;;;;25.88;5.10;;;8.20;99.90;;;;;;5001877;28;20505;-88
2023/01/13 05:55:42;;;;;;;26.77;6.43;;;8.30;99.90;;;;;;4999304;28;20053;-87
2023/01/13 05:58:09;;;;;;;31.98;6.18;;;8.20;99.90;;;;;;4999260;28;20037;-87
2023/01/13 06:00:34;;;;;;;27.90;5.50;;;8.20;99.90;;;;;;5003209;28;20350;-87
2023/01/13 06:03:00;;;;;;;25.92;5.78;;;8.30;99.90;;;;;;4997606;28;20048;-87
2023/01/13 06:05:26;;;;;;;27.92;6.13;;;8.20;99.90;;;;;;5015418;28;20043;-88
2023/01/13 06:07:59;;;;;;;22.85;5.22;;;8.20;99.90;;;;;;5000274;28;20036;-88
2023/01/13 06:10:26;;;;;;;33.25;5.35;;;8.20;99.90;;;;;;4999384;28;20400;-88
2023/01/13 06:12:52;;;;;;;21.63;4.90;;;8.20;99.90;;;;;;5002015;28;20060;-88
2023/01/13 06:15:18;;;;;;;30.63;5.65;;;8.20;99.90;;;;;;5014306;28;20171;-87
2023/01/13 06:17:46;;;;;;;21.27;4.88;;;8.20;99.90;;;;;;5014053;28;20053;-86
2023/01/13 06:20:13;;;;;;;27.02;5.43;;;8.30;99.90;;;;;;5015743;28;20332;-88
2023/01/13 06:22:41;;;;;;;31.48;5.35;;;8.20;99.90;;;;;;5000581;28;20041;-87
2023/01/13 06:25:30;;;;;;;23.30;4.07;;;8.20;99.90;;;;;;5015675;28;20037;-88
2023/01/13 06:27:58;;;;;;;21.60;4.55;;;8.20;99.90;;;;;;5004957;28;20319;-87
2023/01/13 06:30:30;;;;;;;24.60;4.80;;;8.20;99.90;;;;;;5001197;28;20144;-88
2023/01/13 06:33:00;;;;;;;20.27;4.80;;;8.20;99.90;;;;;;5016753;28;20041;-87
2023/01/13 06:35:33;;;;;;;19.15;4.05;;;8.20;99.90;;;;;;5006887;28;20404;-88
2023/01/13 06:38:03;;;;;;;30.63;4.50;;;8.20;99.90;;;;;;5003314;28;20110;-88
2023/01/13 06:40:29;;;;;;;18.42;4.22;;;8.20;99.90;;;;;;5028924;28;20048;-88
2023/01/13 06:43:14;;;;;;;25.15;4.47;;;8.30;99.90;;;;;;5021926;28;20045;-87
2023/01/13 06:45:42;;;;;;;20.98;3.97;;;8.20;99.90;;;;;;5005415;28;20048;-87
2023/01/13 06:48:10;;;;;;;19.23;3.92;;;8.20;99.90;;;;;;5017304;28;20132;-87
2023/01/13 06:50:36;;;;;;;19.05;4.22;;;8.20;99.90;;;;;;5019895;28;20395;-87
2023/01/13 06:53:01;;;;;;;18.85;4.13;;;8.20;99.90;;;;;;5003945;28;20612;-88
2023/01/13 06:55:27;;;;;;;23.67;3.47;;;8.20;99.90;;;;;;5002079;28;20121;-87
2023/01/13 06:57:55;;;;;;;21.15;3.28;;;8.10;99.90;;;;;;5004685;28;20076;-88
2023/01/13 07:00:22;;;;;;;20.85;3.60;;;8.10;99.90;;;;;;5005759;28;20440;-88
2023/01/13 07:02:50;;;;;;;25.08;3.88;;;8.10;99.90;;;;;;5005577;28;20042;-87
2023/01/13 07:05:17;;;;;;;18.48;3.80;;;8.10;99.90;;;;;;5005301;28;20382;-87
2023/01/13 07:07:43;;;;;;;18.15;3.60;;;8.00;99.90;;;;;;5004630;28;20048;-87
2023/01/13 07:10:20;;;;;;;16.70;3.40;;;8.00;99.90;;;;;;5020234;28;20042;-88
2023/01/13 07:15:32;;;;;;;17.73;3.53;;;7.90;99.90;;;;;;5019535;28;20063;-88
2023/01/13 07:17:59;;;;;;;17.10;3.75;;;7.80;99.90;;;;;;5002489;28;20048;-88
2023/01/13 07:20:29;;;;;;;23.10;4.22;;;7.80;99.90;;;;;;5004164;28;20095;-88
2023/01/13 07:22:55;;;;;;;14.45;2.90;;;7.80;99.90;;;;;;5005744;28;20045;-89
2023/01/13 07:25:21;;;;;;;28.30;4.25;;;7.70;99.90;;;;;;5002344;28;20053;-89
2023/01/13 07:27:47;;;;;;;16.00;2.88;;;7.70;99.90;;;;;;5004900;28;20182;-88
2023/01/13 07:30:13;;;;;;;15.52;3.40;;;7.60;99.90;;;;;;5003694;28;20053;-89
2023/01/13 07:32:39;;;;;;;22.25;4.13;;;7.60;99.90;;;;;;5004574;28;20037;-88
2023/01/13 07:35:05;;;;;;;19.75;3.72;;;7.60;99.90;;;;;;5021547;28;20048;-89
2023/01/13 07:37:33;;;;;;;19.73;3.88;;;7.60;99.90;;;;;;5002930;28;20045;-88
2023/01/13 07:39:59;;;;;;;16.00;3.80;;;7.60;99.90;;;;;;5003429;28;20124;-89
2023/01/13 07:45:09;;;;;;;16.70;3.65;;;7.60;99.90;;;;;;5021645;28;20053;-87
2023/01/13 07:47:35;;;;;;;15.88;3.42;;;7.60;99.90;;;;;;5004650;28;20087;-87
2023/01/13 07:50:04;;;;;;;24.33;3.65;;;7.50;99.90;;;;;;5005426;28;20033;-89
2023/01/13 07:52:29;;;;;;;14.88;3.53;;;7.50;99.90;;;;;;5005094;28;20046;-88
2023/01/13 07:54:55;;;;;;;18.05;3.90;;;7.50;99.90;;;;;;5005413;28;20496;-87
2023/01/13 07:57:21;;;;;;;26.63;4.78;;;7.50;99.90;;;;;;5005528;28;20489;-89
2023/01/13 07:59:46;;;;;;;20.92;4.07;;;7.60;99.90;;;;;;5020621;28;20469;-88
2023/01/13 08:02:12;;;;;;;22.05;4.68;;;7.50;99.90;;;;;;5006703;28;20041;-90
2023/01/13 08:04:38;;;;;;;19.77;4.47;;;7.60;99.90;;;;;;5004303;28;20449;-89
2023/01/13 08:07:05;;;;;;;17.00;4.22;;;7.60;99.90;;;;;;5021334;28;20527;-87
2023/01/13 08:09:31;;;;;;;21.35;4.18;;;7.60;99.90;;;;;;5017326;28;20068;-88
2023/01/13 08:14:44;;;;;;;21.45;3.58;;;7.60;99.90;;;;;;5019150;28;20050;-88
2023/01/13 08:17:09;;;;;;;24.80;4.65;;;7.70;99.90;;;;;;5018399;28;20033;-87
2023/01/13 08:19:35;;;;;;;19.05;4.03;;;7.60;99.90;;;;;;5020668;28;20064;-88
2023/01/13 08:22:01;;;;;;;20.00;4.50;;;7.70;99.90;;;;;;5032908;28;20120;-89
2023/01/13 08:24:27;;;;;;;19.05;4.15;;;7.70;99.90;;;;;;5001866;28;20338;-87
2023/01/13 08:26:53;;;;;;;26.08;4.05;;;7.70;99.90;;;;;;5001903;28;20388;-88
2023/01/13 08:29:19;;;;;;;22.98;4.53;;;7.80;99.90;;;;;;5000868;28;20109;-88
2023/01/13 08:31:44;;;;;;;24.85;5.05;;;7.80;99.90;;;;;;5018969;28;20136;-87
2023/01/13 08:34:10;;;;;;;22.95;4.07;;;7.80;99.90;;;;;;5017713;28;20038;-89
2023/01/13 08:36:36;;;;;;;26.25;4.22;;;7.80;99.90;;;;;;5002905;28;20631;-89
2023/01/13 08:39:01;;;;;;;23.40;4.70;;;7.90;99.90;;;;;;5001042;28;20108;-87
2023/01/13 08:44:12;;;;;;;22.98;4.63;;;7.90;99.90;;;;;;5018872;28;20412;-88
2023/01/13 08:46:37;;;;;;;21.13;4.32;;;7.90;99.90;;;;;;5017729;28;20034;-88
2023/01/13 08:49:03;;;;;;;21.92;4.20;;;8.00;99.90;;;;;;5001829;28;20121;-88
2023/01/13 08:51:29;;;;;;;25.92;4.88;;;8.00;99.90;;;;;;5016648;28;20060;-89
2023/01/13 08:53:54;;;;;;;22.13;4.50;;;8.00;99.90;;;;;;5000656;28;20041;-87
2023/01/13 08:56:20;;;;;;;20.15;4.55;;;8.00;99.90;;;;;;5002579;28;20489;-87
2023/01/13 08:58:45;;;;;;;19.48;3.85;;;8.10;99.90;;;;;;5004201;28;20064;-88
2023/01/13 09:01:18;;;;;;;25.63;4.55;;;8.10;99.90;;;;;;5000657;28;20046;-89
2023/01/13 09:03:44;;;;;;;25.42;5.03;;;8.10;99.90;;;;;;5003464;28;20516;-88
2023/01/13 09:06:09;;;;;;;28.60;5.00;;;8.10;99.90;;;;;;5003202;28;20079;-87
2023/01/13 09:08:35;;;;;;;23.60;4.45;;;8.00;99.90;;;;;;5002133;28;20044;-87
2023/01/13 09:13:10;;;;;;;26.38;5.20;;;8.00;99.90;;;;;;4999738;28;20048;-89
2023/01/13 09:13:46;;;;;;;26.33;5.00;;;7.90;99.90;;;;;;5017698;28;20536;-89
2023/01/13 09:16:12;;;;;;;25.20;4.30;;;7.90;99.90;;;;;;5013447;28;20552;-88
2023/01/13 09:18:38;;;;;;;23.35;4.55;;;7.90;99.90;;;;;;5003100;28;20092;-88
2023/01/13 09:21:03;;;;;;;24.52;5.25;;;7.90;99.90;;;;;;5002857;28;20056;-88
2023/01/13 09:23:29;;;;;;;23.00;4.50;;;7.90;99.90;;;;;;5019451;28;20076;-90
2023/01/13 09:25:56;;;;;;;25.73;4.07;;;7.80;99.90;;;;;;5002269;28;20569;-89
2023/01/13 09:28:21;;;;;;;23.50;4.22;;;7.70;99.90;;;;;;5004266;28;20132;-88
2023/01/13 09:30:47;;;;;;;19.42;3.95;;;7.70;99.90;;;;;;5002722;28;20033;-88
2023/01/13 09:35:58;;;;;;;22.77;4.35;;;7.60;99.90;;;;;;5017943;28;20518;-90
2023/01/13 09:38:23;;;;;;;26.17;4.40;;;7.60;99.90;;;;;;5001377;28;20128;-88
2023/01/13 09:40:49;;;;;;;24.30;4.53;;;7.60;99.90;;;;;;5002917;28;20073;-88
2023/01/13 09:49:50;;;;;;;25.23;4.90;;;7.60;99.90;;;;;;5007538;28;20706;-89
2023/01/13 09:52:26;;;;;;;24.25;5.50;;;7.60;99.90;;;;;;4967780;28;20136;-88
2023/01/13 09:55:08;;;;;;;28.20;5.30;;;7.70;99.90;;;;;;4993177;28;20488;-89
2023/01/13 09:57:36;;;;;;;21.35;4.60;;;7.70;99.90;;;;;;5018141;28;20038;-89
2023/01/13 10:00:24;;;;;;;25.00;4.07;;;7.70;99.90;;;;;;5003505;28;20501;-89
2023/01/13 10:03:20;;;;;;;27.90;4.40;;;7.80;99.90;;;;;;5001770;28;20060;-88
2023/01/13 10:05:46;;;;;;;26.10;4.60;;;7.80;99.90;;;;;;5015429;28;20045;-87
2023/01/13 10:08:21;;;;;;;24.33;4.20;;;7.80;99.90;;;;;;5004682;28;20358;-87
2023/01/13 10:10:57;;;;;;;17.38;4.43;;;7.90;99.90;;;;;;5005830;28;20049;-88
2023/01/13 10:13:31;;;;;;;20.13;3.70;;;7.80;99.90;;;;;;5009497;28;20933;-88
2023/01/13 10:16:09;;;;;;;24.48;4.75;;;7.80;99.90;;;;;;5023427;28;20104;-89
2023/01/13 10:18:50;;;;;;;16.45;3.28;;;7.70;99.90;;;;;;5004955;28;20045;-89
2023/01/13 10:21:42;;;;;;;20.80;3.72;;;7.70;99.90;;;;;;5006615;28;20209;-88
2023/01/13 10:24:51;;;;;;;21.73;3.67;;;7.70;99.90;;;;;;5002554;28;20061;-88
2023/01/13 10:27:39;;;;;;;20.65;3.50;;;7.70;99.90;;;;;;5005307;28;20033;-88
2023/01/13 10:30:30;;;;;;;14.05;3.10;;;7.70;99.90;;;;;;5004646;28;20754;-88
2023/01/13 10:33:10;;;;;;;22.95;3.28;;;7.80;99.90;;;;;;5019776;28;20046;-89
2023/01/13 10:36:10;;;;;;;16.65;3.40;;;7.80;99.90;;;;;;5007560;28;20144;-88
2023/01/13 10:38:38;;;;;;;17.52;3.53;;;7.80;99.90;;;;;;5005365;28;20346;-89
2023/01/13 10:41:24;;;;;;;21.02;4.95;;;7.80;99.90;;;;;;5002522;28;20037;-88
2023/01/13 10:43:57;;;;;;;;;;;7.90;99.90;;;;;;5005528;28;20501;-88
2023/01/13 10:46:22;;;;;;;17.17;3.80;;;7.90;99.90;;;;;;5004270;28;20336;-88
2023/01/13 10:48:54;;;;;;;20.55;4.40;;;7.90;99.90;;;;;;5018550;28;20049;-88
2023/01/13 10:51:29;;;;;;;18.60;3.53;;;7.90;99.90;;;;;;5021700;28;20164;-89
2023/01/13 10:54:23;;;;;;;18.38;4.05;;;7.90;99.90;;;;;;5005265;28;20559;-88
2023/01/13 10:57:19;;;;;;;20.10;4.27;;;7.90;99.90;;;;;;4999412;28;20533;-87
2023/01/13 10:59:46;;;;;;;23.77;4.07;;;7.90;99.90;;;;;;5004861;28;20522;-87
2023/01/13 11:02:29;;;;;;;22.95;4.07;;;7.90;99.90;;;;;;5020070;28;20492;-87
2023/01/13 11:05:16;;;;;;;24.30;4.68;;;8.00;99.90;;;;;;5006152;28;20050;-88
2023/01/13 11:07:49;;;;;;;18.20;3.65;;;8.00;99.90;;;;;;5005265;28;20069;-88
2023/01/13 11:10:26;;;;;;;15.60;3.85;;;8.00;99.90;;;;;;5018502;28;20038;-88
2023/01/13 11:13:30;;;;;;;22.67;3.95;;;8.10;99.90;;;;;;5007403;28;20516;-87
2023/01/13 11:16:13;;;;;;;13.13;3.08;;;8.10;99.90;;;;;;4991767;28;20785;-89
2023/01/13 11:19:10;;;;;;;20.58;4.75;;;8.20;99.90;;;;;;5022666;28;20123;-88
2023/01/13 11:21:48;;;;;;;15.63;3.05;;;8.20;99.90;;;;;;5003976;28;20037;-88
2023/01/13 11:24:39;;;;;;;20.27;3.85;;;8.30;99.90;;;;;;5004591;28;20038;-88
2023/01/13 11:27:20;;;;;;;19.17;3.58;;;8.20;99.90;;;;;;5004847;28;20041;-89
2023/01/13 11:30:08;;;;;;;15.57;3.42;;;8.20;99.90;;;;;;5004384;28;20045;-89
2023/01/13 11:32:55;;;;;;;13.95;2.75;;;8.20;99.90;;;;;;5020245;28;20476;-87
2023/01/13 11:35:24;;;;;;;15.73;3.78;;;8.20;99.90;;;;;;5022559;28;20049;-88
2023/01/13 11:38:18;;;;;;;18.58;3.83;;;8.30;99.90;;;;;;5005410;28;20158;-88
2023/01/13 11:40:49;;;;;;;15.45;3.15;;;8.30;99.90;;;;;;5018011;28;20044;-89
2023/01/13 11:43:28;;;;;;;17.33;3.50;;;8.30;99.90;;;;;;5019422;28;20102;-87
2023/01/13 11:45:58;;;;;;;15.10;3.00;;;8.40;99.90;;;;;;5019759;28;20053;-87
2023/01/13 11:48:30;;;;;;;12.95;3.10;;;8.40;99.90;;;;;;5003853;28;20049;-88
2023/01/13 11:51:06;;;;;;;15.63;3.47;;;8.40;99.90;;;;;;5003946;28;20045;-88
2023/01/13 11:53:57;;;;;;;12.32;3.10;;;8.40;99.90;;;;;;5004151;28;20261;-88
2023/01/13 11:56:58;;;;;;;16.95;3.35;;;8.50;99.90;;;;;;5019020;28;20037;-87
2023/01/13 11:59:51;;;;;;;18.75;3.60;;;8.60;99.90;;;;;;5016706;28;20060;-89
2023/01/13 12:02:35;;;;;;;15.07;3.03;;;8.60;99.90;;;;;;5003178;28;20045;-90
2023/01/13 12:05:22;;;;;;;17.08;3.05;;;8.60;99.90;;;;;;5003079;28;20113;-88
2023/01/13 12:08:12;;;;;;;17.33;2.85;;;8.50;99.90;;;;;;5003886;28;20192;-88
2023/01/13 12:10:43;;;;;;;12.90;3.33;;;8.50;99.90;;;;;;5003789;28;20128;-89
2023/01/13 12:13:27;;;;;;;14.10;2.80;;;8.50;99.90;;;;;;5006711;28;20041;-88
2023/01/13 12:16:25;;;;;;;11.88;2.40;;;8.50;99.90;;;;;;5004410;28;20390;-88
2023/01/13 12:19:28;;;;;;;14.85;2.78;;;8.50;99.90;;;;;;5001694;28;20504;-86
2023/01/13 12:22:16;;;;;;;15.45;3.00;;;8.60;99.90;;;;;;5005807;28;20057;-88
2023/01/13 12:24:50;;;;;;;18.27;3.50;;;8.70;99.90;;;;;;5020363;28;20072;-87
2023/01/13 12:27:21;;;;;;;15.77;3.05;;;8.70;99.90;;;;;;5002800;28;20065;-87
2023/01/13 12:29:50;;;;;;;9.60;2.70;;;8.80;99.90;;;;;;5002385;28;20038;-87
2023/01/13 12:32:27;;;;;;;10.40;2.45;;;8.70;99.90;;;;;;5002162;28;20042;-87
2023/01/13 12:35:04;;;;;;;14.80;3.15;;;8.80;99.90;;;;;;5020230;28;20504;-88
2023/01/13 12:38:00;;;;;;;11.25;2.95;;;8.80;99.90;;;;;;4997747;28;20049;-88
2023/01/13 12:40:26;;;;;;;;;;;8.90;99.90;;;;;;5017812;28;20037;-88
2023/01/13 12:45:45;;;;;;;12.10;3.00;;;8.90;99.90;;;;;;5016582;28;20044;-89
2023/01/13 12:48:51;;;;;;;10.05;3.75;;;9.00;99.90;;;;;;5004197;28;20037;-87
2023/01/13 12:51:23;;;;;;;12.43;2.30;;;9.00;99.90;;;;;;5001234;28;20099;-89
2023/01/13 12:53:50;;;;;;;11.55;2.50;;;9.00;99.90;;;;;;5016086;28;20099;-88
2023/01/13 12:56:33;;;;;;;13.20;3.05;;;9.00;99.90;;;;;;5000046;28;20048;-87
2023/01/13 12:59:18;;;;;;;12.60;2.63;;;9.00;99.90;;;;;;5018549;28;20048;-88
2023/01/13 13:01:46;;;;;;;12.25;2.65;;;9.10;99.90;;;;;;5017802;28;20041;-88
2023/01/13 13:04:20;;;;;;;16.23;2.97;;;9.10;99.90;;;;;;5020179;28;20116;-88
2023/01/13 13:07:03;;;;;;;13.52;2.70;;;9.10;99.90;;;;;;5016429;28;20033;-88
2023/01/13 13:09:42;;;;;;;13.75;3.00;;;9.00;99.90;;;;;;4998867;28;20531;-88
2023/01/13 13:15:32;;;;;;;11.40;2.83;;;9.10;99.90;;;;;;5018465;28;20049;-88
2023/01/13 13:17:58;;;;;;;12.60;2.42;;;9.00;99.90;;;;;;5005236;28;20060;-87
2023/01/13 13:20:55;;;;;;;13.90;2.72;;;9.00;99.90;;;;;;5004668;28;20472;-88
2023/01/13 13:23:38;;;;;;;15.48;3.08;;;9.00;99.90;;;;;;5003582;28;20120;-87
2023/01/13 13:26:24;;;;;;;16.60;3.53;;;8.90;99.90;;;;;;5019026;28;20037;-88
2023/01/13 13:29:19;;;;;;;7.47;1.90;;;9.00;99.90;;;;;;4999920;28;20068;-87
2023/01/13 13:32:27;;;;;;;9.57;2.15;;;9.00;99.90;;;;;;5001910;28;20072;-88
2023/01/13 13:35:28;;;;;;;8.35;2.33;;;9.10;99.90;;;;;;4984612;28;20143;-89
2023/01/13 13:46:46;;;;;;;11.38;3.00;;;9.30;99.90;;;;;;5026256;28;20053;-87
2023/01/13 13:49:16;;;;;;;9.02;2.45;;;9.20;99.90;;;;;;5002115;28;20041;-87
2023/01/13 13:51:59;;;;;;;11.20;2.28;;;9.20;99.90;;;;;;5018313;28;20091;-88
2023/01/13 13:54:25;;;;;;;10.30;2.38;;;9.20;99.90;;;;;;5016700;28;20033;-88
2023/01/13 13:56:51;;;;;;;9.98;2.25;;;9.20;99.90;;;;;;4997221;28;20034;-87
2023/01/13 13:59:21;;;;;;;11.45;2.50;;;9.20;99.90;;;;;;5000656;28;20037;-87
2023/01/13 14:02:00;;;;;;;10.30;2.72;;;9.20;99.90;;;;;;5000384;28;20158;-88
2023/01/13 14:04:31;;;;;;;8.35;2.10;;;9.20;99.90;;;;;;5017228;28;20848;-88
2023/01/13 14:07:03;;;;;;;9.00;2.80;;;9.20;99.90;;;;;;5002662;28;20117;-87
2023/01/13 14:09:42;;;;;;;10.43;2.47;;;9.20;99.90;;;;;;5017201;28;20293;-88
2023/01/13 14:12:21;;;;;;;8.82;2.17;;;9.20;99.90;;;;;;5001137;28;20168;-89
2023/01/13 14:14:51;;;;;;;11.77;2.20;;;9.20;99.90;;;;;;5018467;28;20148;-89